Time,TemperatureF,DewpointF,PressureIn,WindDirection,WindDirectionDegrees,WindSpeedMPH,WindSpeedGustMPH,Humidity,HourlyPrecipIn,Conditions,Clouds,dailyrainin,SoftwareType,DateUTC
2013-06-07 00:32:00,52.0,48.0,-100.00,SSW,194,5.0,6.0,85,0.00,,,-99.99,,2013-06-07 06:32:00,
2013-06-07 00:42:00,52.0,48.0,-100.00,SSW,194,5.0,6.0,85,0.00,,,-99.99,,2013-06-07 06:42:00,
2013-06-07 00:52:00,52.0,48.0,-100.00,SSW,194,5.0,6.0,85,0.00,,,-99.99,,2013-06-07 06:52:00,
2013-06-07 01:02:00,52.0,48.0,-100.00,SSW,194,5.0,6.0,85,0.00,,,-99.99,,2013-06-07 07:02:00,
2013-06-07 01:12:00,52.0,48.0,-100.00,SSW,194,5.0,6.0,85,0.00,,,-99.99,,2013-06-07 07:12:00,
2013-06-07 01:42:00,53.0,48.0,-100.00,SW,222,3.0,5.0,82,0.00,,,0.00,,2013-06-07 07:42:00,
2013-06-07 01:52:00,53.0,48.0,-100.00,SW,222,3.0,5.0,82,0.00,,,0.00,,2013-06-07 07:52:00,
2013-06-07 02:02:00,53.0,48.0,-100.00,SW,222,3.0,5.0,82,0.00,,,0.00,,2013-06-07 08:02:00,
2013-06-07 02:12:00,53.0,48.0,-100.00,SW,222,3.0,5.0,82,0.00,,,0.00,,2013-06-07 08:12:00,
2013-06-07 02:32:00,50.0,46.0,-100.00,South,184,4.0,7.0,86,0.00,,,0.00,,2013-06-07 08:32:00,
2013-06-07 02:42:00,50.0,46.0,-100.00,South,184,4.0,7.0,86,0.00,,,0.00,,2013-06-07 08:42:00,
2013-06-07 02:52:00,50.0,46.0,-100.00,South,184,4.0,7.0,86,0.00,,,0.00,,2013-06-07 08:52:00,
2013-06-07 03:02:00,50.0,46.0,-100.00,South,184,4.0,7.0,86,0.00,,,0.00,,2013-06-07 09:02:00,
2013-06-07 03:12:00,50.0,46.0,-100.00,South,184,4.0,7.0,86,0.00,,,0.00,,2013-06-07 09:12:00,
2013-06-07 03:43:00,49.0,45.0,-100.00,SW,217,1.0,3.0,85,0.00,,,0.00,,2013-06-07 09:43:00,
2013-06-07 03:53:00,49.0,45.0,-100.00,SW,217,1.0,3.0,85,0.00,,,0.00,,2013-06-07 09:53:00,
2013-06-07 04:02:00,49.0,45.0,-100.00,SW,217,1.0,3.0,85,0.00,,,0.00,,2013-06-07 10:02:00,
2013-06-07 04:12:00,49.0,45.0,-100.00,SW,217,1.0,3.0,85,0.00,,,0.00,,2013-06-07 10:12:00,
2013-06-07 04:32:00,48.0,45.0,-100.00,WSW,237,2.0,4.0,88,0.00,,,0.00,,2013-06-07 10:32:00,
2013-06-07 04:42:00,48.0,45.0,-100.00,WSW,237,2.0,4.0,88,0.00,,,0.00,,2013-06-07 10:42:00,
2013-06-07 04:53:00,48.0,45.0,-100.00,WSW,237,2.0,4.0,88,0.00,,,0.00,,2013-06-07 10:53:00,
2013-06-07 05:02:00,48.0,45.0,-100.00,WSW,237,2.0,4.0,88,0.00,,,0.00,,2013-06-07 11:02:00,
2013-06-07 05:12:00,48.0,45.0,-100.00,WSW,237,2.0,4.0,88,0.00,,,0.00,,2013-06-07 11:12:00,
2013-06-07 05:32:00,50.0,46.0,-100.00,SW,230,1.0,4.0,85,0.00,,,-99.99,,2013-06-07 11:32:00,
2013-06-07 05:42:00,50.0,46.0,-100.00,SW,230,1.0,4.0,85,0.00,,,-99.99,,2013-06-07 11:42:00,
2013-06-07 05:52:00,50.0,46.0,-100.00,SW,230,1.0,4.0,85,0.00,,,-99.99,,2013-06-07 11:52:00,
2013-06-07 06:02:00,50.0,46.0,-100.00,SW,230,1.0,4.0,85,0.00,,,-99.99,,2013-06-07 12:02:00,
2013-06-07 06:12:00,50.0,46.0,-100.00,SW,230,1.0,4.0,85,0.00,,,-99.99,,2013-06-07 12:12:00,
2013-06-07 06:32:00,49.0,45.0,-100.00,SSW,209,3.0,6.0,86,0.00,,,-99.99,,2013-06-07 12:32:00,
2013-06-07 06:42:00,49.0,45.0,-100.00,SSW,209,3.0,6.0,86,0.00,,,-99.99,,2013-06-07 12:42:00,
2013-06-07 06:52:00,49.0,45.0,-100.00,SSW,209,3.0,6.0,86,0.00,,,-99.99,,2013-06-07 12:52:00,
2013-06-07 07:02:00,49.0,45.0,-100.00,SSW,209,3.0,6.0,86,0.00,,,-99.99,,2013-06-07 13:02:00,
2013-06-07 07:12:00,49.0,45.0,-100.00,SSW,209,3.0,6.0,86,0.00,,,-99.99,,2013-06-07 13:12:00,
2013-06-07 07:42:00,51.0,47.0,-100.00,North,356,2.0,4.0,86,0.00,,,-99.99,,2013-06-07 13:42:00,
2013-06-07 07:52:00,51.0,47.0,-100.00,North,356,2.0,4.0,86,0.00,,,-99.99,,2013-06-07 13:52:00,
2013-06-07 08:02:00,51.0,47.0,-100.00,North,356,2.0,4.0,86,0.00,,,-99.99,,2013-06-07 14:02:00,
2013-06-07 08:12:00,51.0,47.0,-100.00,North,356,2.0,4.0,86,0.00,,,-99.99,,2013-06-07 14:12:00,
2013-06-07 08:42:00,56.0,47.0,-100.00,North,1,4.0,6.0,72,0.01,,,0.00,,2013-06-07 14:42:00,
2013-06-07 08:52:00,56.0,47.0,-100.00,North,1,4.0,6.0,72,0.01,,,0.00,,2013-06-07 14:52:00,
2013-06-07 09:02:00,56.0,47.0,-100.00,North,1,4.0,6.0,72,0.01,,,0.00,,2013-06-07 15:02:00,
2013-06-07 09:12:00,56.0,47.0,-100.00,North,1,4.0,6.0,72,0.01,,,0.00,,2013-06-07 15:12:00,
2013-06-07 09:33:00,59.0,46.0,-100.00,NNE,12,3.0,8.0,63,-99.99,,,-99.99,,2013-06-07 15:33:00,
2013-06-07 09:43:00,59.0,46.0,-100.00,NNE,12,3.0,8.0,63,-99.99,,,-99.99,,2013-06-07 15:43:00,
2013-06-07 09:53:00,59.0,46.0,-100.00,NNE,12,3.0,8.0,63,-99.99,,,-99.99,,2013-06-07 15:53:00,
2013-06-07 10:03:00,59.0,46.0,-100.00,NNE,12,3.0,8.0,63,-99.99,,,-99.99,,2013-06-07 16:03:00,
2013-06-07 10:12:00,59.0,46.0,-100.00,NNE,12,3.0,8.0,63,-99.99,,,-99.99,,2013-06-07 16:12:00,
2013-06-07 10:33:00,63.0,47.0,-100.00,NE,55,5.0,7.0,55,0.00,,,0.00,,2013-06-07 16:33:00,
2013-06-07 10:43:00,63.0,47.0,-100.00,NE,55,5.0,7.0,55,0.00,,,0.00,,2013-06-07 16:43:00,
2013-06-07 10:53:00,63.0,47.0,-100.00,NE,55,5.0,7.0,55,0.00,,,0.00,,2013-06-07 16:53:00,
2013-06-07 11:02:00,63.0,47.0,-100.00,NE,55,5.0,7.0,55,0.00,,,0.00,,2013-06-07 17:02:00,
2013-06-07 11:12:00,63.0,47.0,-100.00,NE,55,5.0,7.0,55,0.00,,,0.00,,2013-06-07 17:12:00,
2013-06-07 11:32:00,68.0,46.0,-100.00,East,86,4.0,8.0,45,0.00,,,0.00,,2013-06-07 17:32:00,
2013-06-07 11:42:00,70.0,46.0,-100.00,NNE,23,7.0,13.0,43,0.00,,,0.00,,2013-06-07 17:42:00,
2013-06-07 11:52:00,70.0,46.0,-100.00,NNE,23,7.0,13.0,43,0.00,,,0.00,,2013-06-07 17:52:00,
2013-06-07 12:13:00,70.0,46.0,-100.00,NNE,23,7.0,13.0,43,0.00,,,0.00,,2013-06-07 18:13:00,
2013-06-07 12:35:00,72.0,45.0,-100.00,ENE,71,4.0,9.0,39,0.00,,,0.00,,2013-06-07 18:35:00,
2013-06-07 12:58:00,72.0,45.0,-100.00,ENE,71,4.0,9.0,39,0.00,,,0.00,,2013-06-07 18:58:00,
2013-06-07 13:04:00,72.0,45.0,-100.00,ENE,71,4.0,9.0,39,0.00,,,0.00,,2013-06-07 19:04:00,
2013-06-07 13:12:00,72.0,45.0,-100.00,ENE,71,4.0,9.0,39,0.00,,,0.00,,2013-06-07 19:12:00,
2013-06-07 13:45:00,74.0,46.0,-100.00,NE,39,7.0,13.0,37,0.00,,,0.00,,2013-06-07 19:45:00,
2013-06-07 13:57:00,74.0,46.0,-100.00,NE,39,7.0,13.0,37,0.00,,,0.00,,2013-06-07 19:57:00,
2013-06-07 14:03:00,74.0,46.0,-100.00,NE,39,7.0,13.0,37,0.00,,,0.00,,2013-06-07 20:03:00,
2013-06-07 14:13:00,74.0,46.0,-100.00,NE,39,7.0,13.0,37,0.00,,,0.00,,2013-06-07 20:13:00,
2013-06-07 14:36:00,73.0,45.0,-100.00,NE,35,4.0,10.0,37,0.00,,,0.00,,2013-06-07 20:36:00,
2013-06-07 14:44:00,73.0,45.0,-100.00,NE,35,4.0,10.0,37,0.00,,,0.00,,2013-06-07 20:44:00,
2013-06-07 14:57:00,73.0,45.0,-100.00,NE,35,4.0,10.0,37,0.00,,,0.00,,2013-06-07 20:57:00,
2013-06-07 15:04:00,73.0,45.0,-100.00,NE,35,4.0,10.0,37,0.00,,,0.00,,2013-06-07 21:04:00,
2013-06-07 15:15:00,75.0,44.0,-100.00,SW,229,10.0,16.0,33,0.00,,,0.00,,2013-06-07 21:15:00,
2013-06-07 15:38:00,75.0,44.0,-100.00,SW,229,10.0,16.0,33,0.00,,,0.00,,2013-06-07 21:38:00,
2013-06-07 15:44:00,75.0,44.0,-100.00,SW,229,10.0,16.0,33,0.00,,,0.00,,2013-06-07 21:44:00,
2013-06-07 16:07:00,75.0,44.0,-100.00,SW,229,10.0,16.0,33,0.00,,,0.00,,2013-06-07 22:07:00,
2013-06-07 16:35:00,73.0,42.0,-100.00,SW,236,14.0,24.0,33,0.00,,,0.00,,2013-06-07 22:35:00,
2013-06-07 16:44:00,73.0,42.0,-100.00,SW,236,14.0,24.0,33,0.00,,,0.00,,2013-06-07 22:44:00,
2013-06-07 16:59:00,73.0,42.0,-100.00,SW,236,14.0,24.0,33,0.00,,,0.00,,2013-06-07 22:59:00,
2013-06-07 17:05:00,73.0,42.0,-100.00,SW,236,14.0,24.0,33,0.00,,,0.00,,2013-06-07 23:05:00,
2013-06-07 17:47:00,75.0,39.0,-100.00,North,350,6.0,15.0,28,0.00,,,0.00,,2013-06-07 23:47:00,
2013-06-07 18:00:00,75.0,39.0,-100.00,North,350,6.0,15.0,28,0.00,,,0.00,,2013-06-08 00:00:00,
2013-06-07 18:06:00,75.0,39.0,-100.00,North,350,6.0,15.0,28,0.00,,,0.00,,2013-06-08 00:06:00,
2013-06-07 18:14:00,75.0,39.0,-100.00,North,350,6.0,15.0,28,0.00,,,0.00,,2013-06-08 00:14:00,
2013-06-07 18:34:00,78.0,40.0,-100.00,WNW,302,8.0,21.0,26,0.00,,,0.00,,2013-06-08 00:34:00,
2013-06-07 18:44:00,78.0,40.0,-100.00,WNW,302,8.0,21.0,26,0.00,,,0.00,,2013-06-08 00:44:00,
2013-06-07 18:58:00,78.0,40.0,-100.00,WNW,302,8.0,21.0,26,0.00,,,0.00,,2013-06-08 00:58:00,
2013-06-07 19:04:00,78.0,40.0,-100.00,WNW,302,8.0,21.0,26,0.00,,,0.00,,2013-06-08 01:04:00,
2013-06-07 19:37:00,74.0,38.0,-100.00,WNW,300,14.0,22.0,27,0.00,,,0.00,,2013-06-08 01:37:00,
2013-06-07 19:44:00,74.0,38.0,-100.00,WNW,300,14.0,22.0,27,0.00,,,0.00,,2013-06-08 01:44:00,
2013-06-07 20:13:00,74.0,38.0,-100.00,WNW,300,14.0,22.0,27,0.00,,,0.00,,2013-06-08 02:13:00,
2013-06-07 20:33:00,72.0,37.0,-100.00,WNW,295,13.0,22.0,28,0.00,,,0.00,,2013-06-08 02:33:00,
2013-06-07 20:46:00,72.0,37.0,-100.00,WNW,295,13.0,22.0,28,0.00,,,0.00,,2013-06-08 02:46:00,
2013-06-07 21:14:00,72.0,37.0,-100.00,WNW,295,13.0,22.0,28,0.00,,,0.00,,2013-06-08 03:14:00,
2013-06-07 21:35:00,68.0,36.0,-100.00,NW,312,13.0,21.0,30,0.00,,,0.00,,2013-06-08 03:35:00,
2013-06-07 21:49:00,68.0,36.0,-100.00,NW,312,13.0,21.0,30,0.00,,,0.00,,2013-06-08 03:49:00,
2013-06-07 21:59:00,68.0,36.0,-100.00,NW,312,13.0,21.0,30,0.00,,,0.00,,2013-06-08 03:59:00,
2013-06-07 22:03:00,68.0,36.0,-100.00,NW,312,13.0,21.0,30,0.00,,,0.00,,2013-06-08 04:03:00,
2013-06-07 22:12:00,68.0,36.0,-100.00,NW,312,13.0,21.0,30,0.00,,,0.00,,2013-06-08 04:12:00,
2013-06-07 22:33:00,67.0,36.0,-100.00,WNW,294,16.0,31.0,32,0.00,,,0.00,,2013-06-08 04:33:00,
2013-06-07 22:42:00,67.0,36.0,-100.00,WNW,294,16.0,31.0,32,0.00,,,0.00,,2013-06-08 04:42:00,
2013-06-07 22:53:00,67.0,36.0,-100.00,WNW,294,16.0,31.0,32,0.00,,,0.00,,2013-06-08 04:53:00,
2013-06-07 23:02:00,67.0,36.0,-100.00,WNW,294,16.0,31.0,32,0.00,,,0.00,,2013-06-08 05:02:00,
2013-06-07 23:12:00,67.0,36.0,-100.00,WNW,294,16.0,31.0,32,0.00,,,0.00,,2013-06-08 05:12:00,
2013-06-07 23:32:00,65.0,35.0,-100.00,NW,324,10.0,23.0,33,0.00,,,0.00,,2013-06-08 05:32:00,
2013-06-07 23:42:00,65.0,35.0,-100.00,NW,324,10.0,23.0,33,0.00,,,0.00,,2013-06-08 05:42:00,
2013-06-07 23:52:00,65.0,35.0,-100.00,NW,324,10.0,23.0,33,0.00,,,0.00,,2013-06-08 05:52:00,